Time;durP1;ratioP1;P1;durP2;ratioP2;P2;SDS_P1;SDS_P2;PMS_P1;PMS_P2;Temp;Humidity;BMP_temperature;BMP_pressure;BME280_temperature;BME280_humidity;BME280_pressure;Samples;Min_cycle;Max_cycle;Signal;HPM_P1;HPM_P2
2022/06/10 00:01:48;;;;;;;7.80;4.88;;;12.50;99.90;;;;;;5258288;28;20177;-71
2022/06/10 00:04:21;;;;;;;11.55;5.38;;;12.50;99.90;;;;;;5259846;28;20051;-71
2022/06/10 00:06:53;;;;;;;11.48;5.22;;;12.50;99.90;;;;;;5260701;28;20043;-71
2022/06/10 00:09:26;;;;;;;9.48;4.53;;;12.50;99.90;;;;;;5261366;28;20044;-72
2022/06/10 00:11:58;;;;;;;6.38;4.05;;;12.50;99.90;;;;;;5258281;28;20181;-70
2022/06/10 00:14:31;;;;;;;8.65;4.82;;;12.40;99.90;;;;;;5259878;28;20573;-72
2022/06/10 00:17:04;;;;;;;13.60;4.80;;;12.40;99.90;;;;;;5259735;28;20553;-71
2022/06/10 00:19:37;;;;;;;6.30;4.30;;;12.40;99.90;;;;;;5262105;28;20054;-70
2022/06/10 00:22:09;;;;;;;10.43;4.78;;;12.40;99.90;;;;;;5243426;28;20047;-69
2022/06/10 00:24:42;;;;;;;7.20;4.20;;;12.40;99.90;;;;;;5258066;28;20082;-71
2022/06/10 00:27:14;;;;;;;9.45;4.38;;;12.40;99.90;;;;;;5258839;28;20051;-72
2022/06/10 00:29:50;;;;;;;9.48;4.45;;;12.30;99.90;;;;;;5247204;28;20048;-71
2022/06/10 00:32:23;;;;;;;10.63;4.88;;;12.30;99.90;;;;;;5260473;28;20460;-71
2022/06/10 00:34:55;;;;;;;13.77;5.30;;;12.40;99.90;;;;;;5241026;28;20044;-71
2022/06/10 00:37:27;;;;;;;8.68;5.20;;;12.30;99.90;;;;;;5259091;28;20051;-70
2022/06/10 00:40:00;;;;;;;14.00;5.05;;;12.30;99.90;;;;;;5259875;28;20482;-71
2022/06/10 00:42:35;;;;;;;8.50;5.22;;;12.30;99.90;;;;;;5258455;28;20051;-70
2022/06/10 00:45:47;;;;;;;7.22;4.55;;;12.30;99.90;;;;;;5245275;28;20040;-71
2022/06/10 00:48:36;;;;;;;6.25;4.70;;;12.40;99.90;;;;;;5249223;28;20040;-72
2022/06/10 00:51:24;;;;;;;13.88;5.93;;;12.40;99.90;;;;;;5259813;28;20048;-71
2022/06/10 00:54:07;;;;;;;5.65;3.95;;;12.40;99.90;;;;;;5259331;28;20047;-72
2022/06/10 00:56:43;;;;;;;6.95;4.63;;;12.40;99.90;;;;;;5242854;28;20050;-71
2022/06/10 00:59:22;;;;;;;7.60;4.05;;;12.40;99.90;;;;;;5258475;28;20055;-71
2022/06/10 01:02:04;;;;;;;6.43;3.90;;;12.30;99.90;;;;;;5258468;28;20040;-71
2022/06/10 01:04:40;;;;;;;7.07;5.10;;;12.30;99.90;;;;;;5243496;28;20058;-72
2022/06/10 01:07:16;;;;;;;8.00;4.07;;;12.30;99.90;;;;;;5260736;28;20039;-70
2022/06/10 01:09:51;;;;;;;7.38;4.28;;;12.30;99.90;;;;;;5241247;28;20046;-71
2022/06/10 01:12:48;;;;;;;8.45;4.35;;;12.30;99.90;;;;;;5253998;28;21135;-71
2022/06/10 01:15:43;;;;;;;9.90;3.80;;;12.30;99.90;;;;;;5264114;28;20400;-71
2022/06/10 01:18:49;;;;;;;9.02;4.13;;;12.20;99.90;;;;;;5261960;28;20056;-72
2022/06/10 01:21:45;;;;;;;13.68;4.90;;;12.20;99.90;;;;;;5263149;28;20447;-71
2022/06/10 01:24:42;;;;;;;11.05;4.70;;;12.20;99.90;;;;;;5263844;28;20054;-70
2022/06/10 01:27:52;;;;;;;10.13;4.82;;;12.10;99.90;;;;;;5262105;28;20055;-71
2022/06/10 01:30:51;;;;;;;7.05;4.45;;;12.10;99.90;;;;;;5265432;28;20044;-69
2022/06/10 01:33:26;;;;;;;6.30;3.47;;;12.10;99.90;;;;;;5264295;28;20415;-71
2022/06/10 01:36:08;;;;;;;7.18;4.03;;;12.10;99.90;;;;;;5262372;28;20050;-70
2022/06/10 01:38:50;;;;;;;8.30;3.78;;;12.20;99.90;;;;;;5230083;28;20058;-72
2022/06/10 01:41:41;;;;;;;12.18;4.50;;;12.20;99.90;;;;;;5262386;28;20051;-70
2022/06/10 01:44:14;;;;;;;11.23;4.10;;;12.10;99.90;;;;;;5230866;28;20788;-71
2022/06/10 01:46:59;;;;;;;7.88;3.78;;;12.10;99.90;;;;;;5264946;28;20048;-72
2022/06/10 01:49:59;;;;;;;8.45;3.92;;;12.20;99.90;;;;;;5263210;28;20055;-71
2022/06/10 01:52:47;;;;;;;6.88;3.83;;;12.20;99.90;;;;;;5268669;28;20137;-72
2022/06/10 01:55:26;;;;;;;5.50;3.60;;;12.10;99.90;;;;;;5264813;28;20047;-71
2022/06/10 01:58:23;;;;;;;8.95;4.03;;;12.20;99.90;;;;;;5261691;28;20040;-70
2022/06/10 02:01:01;;;;;;;6.40;4.30;;;12.20;99.90;;;;;;5263356;28;20921;-70
2022/06/10 02:03:47;;;;;;;6.93;4.25;;;12.20;99.90;;;;;;5248127;28;20062;-72
2022/06/10 02:06:34;;;;;;;6.63;4.47;;;12.20;99.90;;;;;;5263982;28;20054;-71
2022/06/10 02:09:12;;;;;;;10.85;4.72;;;12.20;99.90;;;;;;5235505;28;20052;-71
2022/06/10 02:11:50;;;;;;;6.70;4.32;;;12.20;99.90;;;;;;5258695;28;20078;-72
2022/06/10 02:14:57;;;;;;;8.10;4.55;;;12.10;99.90;;;;;;5263157;28;20047;-70
2022/06/10 02:17:37;;;;;;;12.48;4.63;;;12.00;99.90;;;;;;5263729;28;20040;-70
2022/06/10 02:20:16;;;;;;;13.38;4.43;;;12.00;99.90;;;;;;5261626;28;20372;-70
2022/06/10 02:22:49;;;;;;;8.68;3.80;;;12.10;99.90;;;;;;5266697;28;20059;-70
2022/06/10 02:25:26;;;;;;;13.57;4.50;;;12.10;99.90;;;;;;5270078;28;20538;-70
2022/06/10 02:28:07;;;;;;;9.20;4.15;;;12.10;99.90;;;;;;5250274;27;20597;-69
2022/06/10 02:31:08;;;;;;;7.18;3.90;;;12.20;99.90;;;;;;5261634;28;20643;-71
2022/06/10 02:33:42;;;;;;;14.52;4.93;;;12.20;99.90;;;;;;5259883;28;20830;-70
2022/06/10 02:36:22;;;;;;;8.43;4.50;;;12.10;99.90;;;;;;5260746;27;20051;-71
2022/06/10 02:38:57;;;;;;;7.78;4.10;;;12.10;99.90;;;;;;5261072;28;20058;-70
2022/06/10 02:41:47;;;;;;;7.10;4.10;;;12.00;99.90;;;;;;5260747;28;20109;-71
2022/06/10 02:44:52;;;;;;;8.23;4.20;;;12.00;99.90;;;;;;5259114;28;20063;-71
2022/06/10 02:47:40;;;;;;;7.03;3.78;;;11.90;99.90;;;;;;5258894;28;20329;-70
2022/06/10 02:50:15;;;;;;;6.63;3.97;;;11.90;99.90;;;;;;5261737;28;20032;-70
2022/06/10 02:52:47;;;;;;;10.02;4.85;;;12.00;99.90;;;;;;5241837;28;20514;-72
2022/06/10 02:55:23;;;;;;;8.70;4.07;;;11.90;99.90;;;;;;5259274;28;20063;-71
2022/06/10 03:01:20;;;;;;;14.77;4.60;;;12.00;99.90;;;;;;5259462;28;20039;-71
2022/06/10 03:04:11;;;;;;;8.95;4.00;;;12.00;99.90;;;;;;5258954;28;20043;-71
2022/06/10 03:06:59;;;;;;;10.02;3.63;;;12.00;99.90;;;;;;5259135;28;20134;-72
2022/06/10 03:10:25;;;;;;;8.80;4.30;;;12.00;99.90;;;;;;5242929;28;20040;-73
2022/06/10 03:13:17;;;;;;;9.90;4.07;;;12.00;99.90;;;;;;5184199;28;20042;-71
2022/06/10 03:16:01;;;;;;;7.68;4.25;;;12.10;99.90;;;;;;5237384;28;20491;-68
2022/06/10 03:19:02;;;;;;;7.93;3.80;;;12.10;99.90;;;;;;5258537;28;20036;-73
2022/06/10 03:21:50;;;;;;;6.78;3.53;;;12.10;99.90;;;;;;5249838;28;20040;-71
2022/06/10 03:24:25;;;;;;;5.25;3.90;;;12.10;99.90;;;;;;5253415;28;20048;-72
2022/06/10 03:27:23;;;;;;;9.95;4.05;;;12.00;99.90;;;;;;5259633;28;20404;-71
2022/06/10 03:30:05;;;;;;;8.63;4.10;;;12.00;99.90;;;;;;5250552;28;20062;-70
2022/06/10 03:36:05;;;;;;;7.38;3.90;;;12.00;99.90;;;;;;5176367;28;20054;-76
2022/06/10 03:38:41;;;;;;;7.15;4.22;;;12.00;99.90;;;;;;5182218;28;20486;-75
2022/06/10 03:41:22;;;;;;;6.38;3.50;;;12.00;99.90;;;;;;5184029;28;20042;-76
2022/06/10 03:43:57;;;;;;;5.22;3.38;;;12.00;99.90;;;;;;5183049;28;20038;-74
2022/06/10 03:46:33;;;;;;;11.15;4.00;;;12.10;99.90;;;;;;5182067;28;20038;-74
2022/06/10 03:49:09;;;;;;;5.75;3.35;;;12.10;99.90;;;;;;5181264;28;20042;-78
2022/06/10 03:51:43;;;;;;;9.07;4.40;;;12.10;99.90;;;;;;5184289;28;20053;-77
2022/06/10 03:54:18;;;;;;;6.60;3.50;;;12.10;99.90;;;;;;5182944;28;20049;-75
2022/06/10 03:56:52;;;;;;;10.52;3.70;;;12.10;99.90;;;;;;5171012;28;20062;-75
2022/06/10 03:59:24;;;;;;;5.82;3.80;;;12.10;99.90;;;;;;5182068;28;20041;-76
2022/06/10 04:01:56;;;;;;;6.28;4.07;;;12.10;99.90;;;;;;5179876;28;20041;-75
2022/06/10 04:04:29;;;;;;;7.00;3.63;;;12.10;99.90;;;;;;5182776;28;20064;-75
2022/06/10 04:07:02;;;;;;;8.10;3.47;;;12.20;99.90;;;;;;5184340;28;20960;-75
2022/06/10 04:09:34;;;;;;;8.50;3.50;;;12.20;99.90;;;;;;5158852;28;20039;-73
2022/06/10 04:12:08;;;;;;;10.18;3.60;;;12.20;99.90;;;;;;5179427;28;20679;-75
2022/06/10 04:14:40;;;;;;;13.45;7.72;;;12.20;99.90;;;;;;5181321;28;20413;-74
2022/06/10 04:17:14;;;;;;;;;;;12.20;99.90;;;;;;5184923;28;20146;-75
2022/06/10 04:19:46;;;;;;;7.28;3.38;;;12.20;99.90;;;;;;5184294;28;19922;-76
2022/06/10 04:22:19;;;;;;;7.50;4.10;;;12.20;99.90;;;;;;5180045;28;20045;-74
2022/06/10 04:24:52;;;;;;;11.10;4.15;;;12.20;99.90;;;;;;5184215;28;20050;-76
2022/06/10 04:27:24;;;;;;;8.47;3.90;;;12.20;99.90;;;;;;5168399;28;20532;-76
2022/06/10 04:29:58;;;;;;;9.88;3.78;;;12.20;99.90;;;;;;5182365;28;20053;-74
2022/06/10 04:32:30;;;;;;;7.75;3.78;;;12.30;99.90;;;;;;5182266;28;20052;-77
2022/06/10 04:35:03;;;;;;;11.75;3.33;;;12.30;99.90;;;;;;5183543;28;20046;-77
2022/06/10 04:37:35;;;;;;;4.55;3.22;;;12.40;99.90;;;;;;5183848;28;20046;-74
2022/06/10 04:40:08;;;;;;;9.35;4.47;;;12.40;99.90;;;;;;5182128;28;20445;-74
2022/06/10 04:42:40;;;;;;;5.93;3.65;;;12.50;99.90;;;;;;5180342;28;20049;-74
2022/06/10 04:45:15;;;;;;;9.85;4.43;;;12.50;99.90;;;;;;5182986;28;20046;-76
2022/06/10 04:47:48;;;;;;;10.60;4.25;;;12.60;99.90;;;;;;5163336;28;20049;-75
2022/06/10 04:50:28;;;;;;;7.00;3.92;;;12.60;99.90;;;;;;5184692;28;20404;-75
2022/06/10 04:53:00;;;;;;;6.63;3.80;;;12.60;99.90;;;;;;5180720;28;20038;-74
2022/06/10 04:55:32;;;;;;;6.65;4.00;;;12.70;99.90;;;;;;5181338;28;20045;-76
2022/06/10 04:58:06;;;;;;;5.68;3.00;;;12.70;99.90;;;;;;5179907;28;20057;-76
2022/06/10 05:00:42;;;;;;;6.85;3.55;;;12.80;99.90;;;;;;5183393;28;20046;-76
2022/06/10 05:03:16;;;;;;;9.02;3.50;;;12.80;99.90;;;;;;5187083;28;20054;-76
2022/06/10 05:05:48;;;;;;;5.05;3.42;;;12.80;99.90;;;;;;5184931;28;20819;-74
2022/06/10 05:08:20;;;;;;;4.22;3.28;;;12.90;99.90;;;;;;5179230;28;20050;-76
2022/06/10 05:10:53;;;;;;;5.57;2.72;;;12.90;99.90;;;;;;5179860;28;20042;-75
2022/06/10 05:13:25;;;;;;;5.63;3.42;;;12.90;99.90;;;;;;5182309;28;20421;-76
2022/06/10 05:15:58;;;;;;;9.63;3.47;;;12.90;99.90;;;;;;5163051;28;20425;-76
2022/06/10 05:18:32;;;;;;;6.60;3.13;;;12.90;99.90;;;;;;5161245;28;20061;-75
2022/06/10 05:21:04;;;;;;;8.10;3.53;;;12.90;99.90;;;;;;5176860;28;20518;-75
2022/06/10 05:23:36;;;;;;;7.22;3.67;;;13.00;99.90;;;;;;5176659;28;20053;-75
2022/06/10 05:26:09;;;;;;;9.88;4.10;;;13.10;99.90;;;;;;5179481;28;20069;-75
2022/06/10 05:28:41;;;;;;;9.13;3.60;;;13.10;99.90;;;;;;5180798;28;20552;-75
2022/06/10 05:31:13;;;;;;;13.27;3.90;;;13.20;99.90;;;;;;5183494;28;20049;-75
2022/06/10 05:36:37;;;;;;;8.95;3.65;;;13.30;99.90;;;;;;5182822;28;20042;-76
2022/06/10 05:39:09;;;;;;;8.48;3.42;;;13.30;99.90;;;;;;5181609;28;20038;-75
2022/06/10 05:44:42;;;;;;;7.38;3.22;;;13.40;99.90;;;;;;5181425;28;20041;-75
2022/06/10 05:47:31;;;;;;;7.72;3.25;;;13.50;99.90;;;;;;5181804;28;20049;-76
2022/06/10 05:50:27;;;;;;;8.75;3.38;;;13.50;99.90;;;;;;5181456;28;20068;-76
2022/06/10 05:53:00;;;;;;;10.70;3.53;;;13.60;99.90;;;;;;5180435;28;20041;-76
2022/06/10 05:55:34;;;;;;;6.88;3.15;;;13.60;99.90;;;;;;5179256;28;20042;-75
2022/06/10 05:58:11;;;;;;;9.38;3.60;;;13.70;99.90;;;;;;5183385;28;20493;-75
2022/06/10 06:00:44;;;;;;;14.43;3.65;;;13.70;99.90;;;;;;5161043;28;20583;-74
2022/06/10 06:03:16;;;;;;;6.97;3.00;;;13.80;99.90;;;;;;5183761;28;20134;-76
2022/06/10 06:05:49;;;;;;;7.03;3.10;;;13.80;99.90;;;;;;5183771;28;20430;-75
2022/06/10 06:08:21;;;;;;;8.07;3.00;;;13.90;99.90;;;;;;5183103;28;20054;-77
2022/06/10 06:10:54;;;;;;;10.70;3.67;;;14.00;99.90;;;;;;5182004;28;20038;-78
2022/06/10 06:13:27;;;;;;;10.35;3.63;;;14.00;99.90;;;;;;5196985;28;20056;-75
2022/06/10 06:15:59;;;;;;;4.82;3.13;;;14.00;99.90;;;;;;5192226;28;20599;-77
2022/06/10 06:18:32;;;;;;;10.25;4.10;;;14.10;99.90;;;;;;5184665;28;20046;-75
2022/06/10 06:21:05;;;;;;;6.57;2.90;;;14.10;99.90;;;;;;5184258;28;20045;-76
2022/06/10 06:23:37;;;;;;;4.72;3.40;;;14.10;99.90;;;;;;5165767;28;20069;-76
2022/06/10 06:26:14;;;;;;;8.60;3.43;;;14.20;99.90;;;;;;5186985;28;20637;-75
2022/06/10 06:28:47;;;;;;;10.55;4.68;;;14.30;99.90;;;;;;5164910;28;20425;-75
2022/06/10 06:31:19;;;;;;;6.18;3.35;;;14.40;99.90;;;;;;5183761;28;20057;-75
2022/06/10 06:33:51;;;;;;;10.90;3.50;;;14.50;99.90;;;;;;5165686;28;20416;-74
2022/06/10 06:36:27;;;;;;;10.15;4.60;;;14.60;99.90;;;;;;5182237;28;20734;-75
2022/06/10 06:39:00;;;;;;;8.43;4.07;;;14.70;99.90;;;;;;5184141;28;20034;-74
2022/06/10 06:41:32;;;;;;;10.23;3.92;;;14.90;99.90;;;;;;5180239;28;20041;-75
2022/06/10 06:44:05;;;;;;;9.27;4.15;;;15.00;99.90;;;;;;5178101;28;20052;-75
2022/06/10 06:46:40;;;;;;;8.43;4.13;;;15.20;99.90;;;;;;5182789;28;20700;-78
2022/06/10 06:49:20;;;;;;;6.20;4.18;;;15.30;99.90;;;;;;5179474;28;20057;-75
2022/06/10 06:51:56;;;;;;;8.02;4.40;;;15.50;99.90;;;;;;5183297;28;20049;-75
2022/06/10 06:54:29;;;;;;;7.50;4.22;;;15.50;99.90;;;;;;5183759;28;20057;-76
2022/06/10 06:57:01;;;;;;;8.35;4.35;;;15.60;99.90;;;;;;5181525;28;20520;-74
2022/06/10 06:59:34;;;;;;;5.90;3.78;;;15.60;99.90;;;;;;5182465;28;20037;-75
2022/06/10 07:02:08;;;;;;;6.55;4.03;;;15.70;99.90;;;;;;5165311;28;20057;-75
2022/06/10 07:04:40;;;;;;;8.80;4.60;;;15.80;99.90;;;;;;5182015;28;20065;-76
2022/06/10 07:07:12;;;;;;;9.15;4.47;;;15.80;99.90;;;;;;5181407;28;20046;-76
2022/06/10 07:09:45;;;;;;;14.90;3.92;;;15.70;99.90;;;;;;5180789;28;20046;-74
2022/06/10 07:12:17;;;;;;;12.63;4.95;;;15.90;99.90;;;;;;5180248;28;20053;-75
2022/06/10 07:14:49;;;;;;;10.43;3.95;;;15.90;99.90;;;;;;5165868;28;20046;-77
2022/06/10 07:17:22;;;;;;;6.40;4.00;;;15.90;99.90;;;;;;5178631;28;20053;-75
2022/06/10 07:19:58;;;;;;;16.83;5.18;;;15.80;99.90;;;;;;5178716;28;20042;-76
2022/06/10 07:22:31;;;;;;;12.65;4.90;;;15.80;99.90;;;;;;5178009;28;20045;-75
2022/06/10 07:25:04;;;;;;;11.67;4.37;;;15.80;99.90;;;;;;5156089;28;20045;-75
2022/06/10 07:27:36;;;;;;;10.00;4.33;;;15.90;99.90;;;;;;5172781;28;20050;-75
2022/06/10 07:30:11;;;;;;;11.93;4.80;;;15.90;99.90;;;;;;5162901;28;20058;-74
2022/06/10 07:32:44;;;;;;;8.43;5.00;;;16.00;99.90;;;;;;5179761;28;20459;-75
2022/06/10 07:35:18;;;;;;;8.32;4.40;;;16.00;99.90;;;;;;5143653;28;20088;-76
2022/06/10 07:37:51;;;;;;;11.18;4.57;;;16.10;99.90;;;;;;5161852;28;20444;-75
2022/06/10 07:43:45;;;;;;;8.98;4.20;;;16.20;99.90;;;;;;5181213;28;20524;-76
2022/06/10 07:46:20;;;;;;;10.07;5.40;;;16.30;99.90;;;;;;5182059;28;20803;-75
2022/06/10 07:48:52;;;;;;;10.85;5.07;;;16.40;99.90;;;;;;5178559;28;20049;-75
2022/06/10 07:51:25;;;;;;;11.38;5.50;;;16.30;99.90;;;;;;5181020;28;20057;-75
2022/06/10 07:53:57;;;;;;;9.90;4.63;;;16.40;99.90;;;;;;5180849;28;20509;-75
2022/06/10 07:56:29;;;;;;;10.02;5.00;;;16.50;99.90;;;;;;5177111;28;20045;-75
2022/06/10 07:59:03;;;;;;;12.93;5.50;;;16.70;99.90;;;;;;5179478;28;20050;-75
2022/06/10 08:01:36;;;;;;;11.38;5.00;;;16.80;99.90;;;;;;5181288;28;20057;-74
2022/06/10 08:04:09;;;;;;;6.88;4.25;;;17.00;99.90;;;;;;5179405;28;20046;-75
2022/06/10 08:06:43;;;;;;;;;;;17.10;99.90;;;;;;5170554;28;20054;-75
2022/06/10 08:09:20;;;;;;;10.33;5.43;;;17.00;99.90;;;;;;5175653;28;19929;-75
2022/06/10 08:11:53;;;;;;;10.27;5.57;;;16.90;99.90;;;;;;5155637;28;20042;-75
2022/06/10 08:14:25;;;;;;;10.27;5.80;;;16.80;99.90;;;;;;5179220;28;20050;-76
2022/06/10 08:17:03;;;;;;;8.75;5.00;;;16.60;99.90;;;;;;5179783;28;20053;-75
2022/06/10 08:19:36;;;;;;;11.48;5.43;;;16.70;99.90;;;;;;5180345;28;20052;-75
2022/06/10 08:25:03;;;;;;;10.02;5.45;;;17.30;99.90;;;;;;5180165;28;20053;-75
2022/06/10 08:27:36;;;;;;;8.77;5.43;;;17.30;99.90;;;;;;5177195;28;20525;-75
2022/06/10 08:30:13;;;;;;;9.77;5.88;;;17.40;98.70;;;;;;5177821;28;20057;-75
2022/06/10 08:32:45;;;;;;;10.35;5.80;;;17.70;99.90;;;;;;5182360;28;20400;-76
2022/06/10 08:35:20;;;;;;;8.95;5.63;;;17.90;99.90;;;;;;5176270;28;20145;-75
2022/06/10 08:37:52;;;;;;;9.45;5.47;;;18.00;96.80;;;;;;5178850;28;20501;-75
2022/06/10 08:40:46;;;;;;;10.43;5.40;;;18.30;96.90;;;;;;5178736;28;20045;-76
2022/06/10 08:43:43;;;;;;;12.38;5.05;;;18.40;92.40;;;;;;5179320;28;20053;-76
2022/06/10 08:46:18;;;;;;;7.63;5.50;;;18.50;92.10;;;;;;5177769;28;20057;-77
2022/06/10 08:49:17;;;;;;;7.13;5.32;;;18.50;92.70;;;;;;5178715;28;20038;-76
2022/06/10 08:52:05;;;;;;;10.50;5.93;;;18.40;92.00;;;;;;5159253;28;20054;-75
2022/06/10 08:54:50;;;;;;;7.47;4.55;;;18.30;94.70;;;;;;5164610;28;20042;-75
2022/06/10 08:57:36;;;;;;;8.27;5.28;;;18.40;93.30;;;;;;5178167;28;20053;-77
2022/06/10 09:00:28;;;;;;;10.18;5.05;;;18.50;93.30;;;;;;5177351;28;20053;-74
2022/06/10 09:03:13;;;;;;;10.77;5.22;;;18.70;90.70;;;;;;5175836;28;20052;-76
2022/06/10 09:05:53;;;;;;;11.63;4.82;;;18.90;91.20;;;;;;5176525;28;20042;-75
2022/06/10 09:08:31;;;;;;;7.60;5.15;;;19.00;90.30;;;;;;5177105;28;20420;-74
2022/06/10 09:11:08;;;;;;;10.13;5.07;;;18.90;88.90;;;;;;5174049;28;20056;-75
2022/06/10 09:14:19;;;;;;;11.77;5.10;;;18.70;90.80;;;;;;5177070;28;20053;-75
2022/06/10 09:17:01;;;;;;;9.80;4.97;;;18.70;89.00;;;;;;5176205;28;20444;-76
2022/06/10 09:19:36;;;;;;;11.35;5.68;;;18.70;90.30;;;;;;5168360;28;20048;-75
2022/06/10 09:22:22;;;;;;;10.68;5.18;;;18.60;90.50;;;;;;5175922;28;20054;-76
2022/06/10 09:25:17;;;;;;;9.65;5.03;;;18.40;87.80;;;;;;5175700;28;20057;-75
2022/06/10 09:27:55;;;;;;;9.35;5.13;;;18.20;88.30;;;;;;5160517;28;20069;-77
2022/06/10 09:30:39;;;;;;;8.63;4.75;;;18.40;90.80;;;;;;5159175;28;20053;-77
2022/06/10 09:33:38;;;;;;;10.57;4.68;;;18.40;90.10;;;;;;5180520;28;20050;-74
2022/06/10 09:36:23;;;;;;;9.52;4.40;;;18.50;90.70;;;;;;5153592;28;20045;-77
2022/06/10 09:42:43;;;;;;;10.07;4.57;;;18.80;89.90;;;;;;5171120;28;20054;-75
2022/06/10 09:45:27;;;;;;;7.57;4.25;;;18.90;85.80;;;;;;5163529;28;20515;-75
2022/06/10 09:48:06;;;;;;;8.27;4.93;;;19.10;85.60;;;;;;5185645;28;20524;-75
2022/06/10 09:50:57;;;;;;;10.52;5.45;;;19.20;87.00;;;;;;5184446;28;20054;-75
2022/06/10 09:53:33;;;;;;;8.15;4.70;;;19.20;86.90;;;;;;5186678;28;20512;-74
2022/06/10 09:56:34;;;;;;;8.57;5.07;;;19.10;84.50;;;;;;5182399;28;20065;-75
2022/06/10 09:59:12;;;;;;;8.68;4.22;;;19.10;83.10;;;;;;5182688;28;20025;-76
2022/06/10 10:02:01;;;;;;;9.88;4.68;;;19.20;85.60;;;;;;5183331;28;20045;-75
2022/06/10 10:04:58;;;;;;;10.50;4.80;;;19.30;83.40;;;;;;5163297;28;20045;-75
2022/06/10 10:07:51;;;;;;;6.40;4.28;;;19.30;83.00;;;;;;5161986;28;20404;-72
2022/06/10 10:10:55;;;;;;;8.67;5.80;;;19.40;84.70;;;;;;5179608;28;20512;-76
2022/06/10 10:13:59;;;;;;;10.45;5.95;;;19.40;80.70;;;;;;5181056;28;20474;-77
2022/06/10 10:17:07;;;;;;;11.23;5.77;;;19.30;79.40;;;;;;5178298;28;20050;-76
2022/06/10 10:20:19;;;;;;;11.80;5.40;;;19.20;79.80;;;;;;5179605;28;20041;-76
2022/06/10 10:23:12;;;;;;;8.02;5.18;;;19.50;79.70;;;;;;5183410;28;20045;-75
2022/06/10 10:25:46;;;;;;;9.48;4.88;;;19.70;79.50;;;;;;5163923;28;20050;-75
2022/06/10 10:28:28;;;;;;;6.97;4.43;;;19.60;80.90;;;;;;5184350;28;20060;-76
2022/06/10 10:31:11;;;;;;;8.52;4.43;;;19.60;84.10;;;;;;5182528;28;20038;-80
2022/06/10 10:33:44;;;;;;;8.90;5.43;;;19.50;81.60;;;;;;5184026;28;20034;-75
2022/06/10 10:36:28;;;;;;;7.80;4.20;;;19.40;82.00;;;;;;5182146;28;20497;-75
2022/06/10 10:39:26;;;;;;;6.97;4.68;;;19.40;81.50;;;;;;5182551;28;20057;-74
2022/06/10 10:42:03;;;;;;;8.70;5.00;;;19.40;79.00;;;;;;5182587;28;20057;-75
2022/06/10 10:44:41;;;;;;;6.63;4.50;;;19.40;79.60;;;;;;5168616;28;20052;-75
2022/06/10 10:47:18;;;;;;;12.05;5.25;;;19.60;81.40;;;;;;5182117;28;20500;-75
2022/06/10 10:50:20;;;;;;;6.20;4.45;;;20.10;77.50;;;;;;5185544;28;20038;-75
2022/06/10 10:52:52;;;;;;;6.00;4.30;;;20.50;78.30;;;;;;5182529;28;20034;-75
2022/06/10 10:55:34;;;;;;;8.10;5.18;;;20.80;75.10;;;;;;5179516;28;20041;-75
2022/06/10 10:58:20;;;;;;;5.63;4.35;;;20.90;73.10;;;;;;5180644;28;20041;-75
2022/06/10 11:01:04;;;;;;;6.20;4.38;;;20.90;72.90;;;;;;5177389;28;20057;-74
2022/06/10 11:03:45;;;;;;;4.88;4.28;;;21.40;74.10;;;;;;5158956;28;20539;-75
2022/06/10 11:06:26;;;;;;;5.40;3.72;;;21.90;71.00;;;;;;5176414;28;20763;-75
2022/06/10 11:09:22;;;;;;;5.63;3.83;;;22.20;72.60;;;;;;5178522;28;20041;-75
2022/06/10 11:11:57;;;;;;;7.88;4.95;;;22.60;70.50;;;;;;5155107;28;20469;-75
2022/06/10 11:14:34;;;;;;;7.85;5.50;;;22.80;69.80;;;;;;5180449;28;20524;-75
2022/06/10 11:17:11;;;;;;;6.60;4.22;;;23.00;68.70;;;;;;5175669;28;20049;-76
2022/06/10 11:19:52;;;;;;;8.48;4.00;;;22.90;67.30;;;;;;5179940;28;20445;-76
2022/06/10 11:22:35;;;;;;;4.33;3.30;;;22.80;69.10;;;;;;5169638;28;20052;-76
2022/06/10 11:25:16;;;;;;;7.43;3.90;;;23.40;68.90;;;;;;5175820;28;20050;-76
2022/06/10 11:27:49;;;;;;;5.95;4.00;;;23.90;69.10;;;;;;5178286;28;20052;-76
2022/06/10 11:30:24;;;;;;;7.93;3.90;;;23.90;64.80;;;;;;5141388;28;20049;-75
2022/06/10 11:33:04;;;;;;;6.57;4.28;;;24.10;65.30;;;;;;5176857;28;20038;-74
2022/06/10 11:35:57;;;;;;;6.88;4.72;;;24.60;65.60;;;;;;5174179;28;21112;-76
2022/06/10 11:38:32;;;;;;;7.30;4.28;;;24.80;59.40;;;;;;5177067;28;20050;-75
2022/06/10 11:41:28;;;;;;;6.35;3.95;;;24.30;59.50;;;;;;5157276;28;20045;-75
2022/06/10 11:44:20;;;;;;;5.35;3.70;;;24.30;59.60;;;;;;5177165;28;20056;-75
2022/06/10 11:47:04;;;;;;;7.45;3.55;;;24.30;62.80;;;;;;5173483;28;20057;-75
2022/06/10 11:50:06;;;;;;;9.55;4.18;;;24.40;59.50;;;;;;5175352;28;20660;-75
2022/06/10 11:52:44;;;;;;;6.05;4.03;;;24.10;58.20;;;;;;5155528;28;20064;-75
2022/06/10 11:55:25;;;;;;;4.60;3.53;;;24.00;61.30;;;;;;5167346;28;20042;-76
2022/06/10 12:01:08;;;;;;;5.05;3.60;;;23.20;59.50;;;;;;5174991;28;20033;-75
2022/06/10 12:03:52;;;;;;;6.35;3.95;;;23.40;65.00;;;;;;5174844;28;20060;-75
2022/06/10 12:06:39;;;;;;;9.45;4.32;;;24.10;63.50;;;;;;5175908;28;20053;-74
2022/06/10 12:09:23;;;;;;;5.72;3.78;;;24.10;60.70;;;;;;5174205;28;20061;-75
2022/06/10 12:12:02;;;;;;;6.85;3.63;;;23.80;61.80;;;;;;5175832;28;20061;-75
2022/06/10 12:14:42;;;;;;;5.30;3.30;;;24.00;63.80;;;;;;5153539;28;20058;-75
2022/06/10 12:17:21;;;;;;;6.95;3.47;;;24.20;64.20;;;;;;5174060;28;20050;-75
2022/06/10 12:20:18;;;;;;;5.45;3.40;;;24.00;61.60;;;;;;5174877;28;20038;-75
2022/06/10 12:22:51;;;;;;;6.65;3.38;;;23.60;63.00;;;;;;5175189;28;20057;-75
2022/06/10 12:25:40;;;;;;;7.72;3.63;;;23.20;63.60;;;;;;5171983;28;20054;-76
2022/06/10 12:28:52;;;;;;;7.72;3.85;;;22.90;63.20;;;;;;5174696;28;20064;-77
2022/06/10 12:31:48;;;;;;;5.95;4.03;;;22.50;64.90;;;;;;5172185;28;20041;-76
2022/06/10 12:34:39;;;;;;;4.57;3.50;;;22.30;65.50;;;;;;5174581;28;20497;-74
2022/06/10 12:37:34;;;;;;;7.43;3.50;;;22.10;66.90;;;;;;5173700;28;20108;-75
2022/06/10 12:40:11;;;;;;;4.22;3.30;;;21.90;65.50;;;;;;5174812;28;20049;-74
2022/06/10 12:42:52;;;;;;;7.93;3.38;;;21.70;68.10;;;;;;5175762;28;20044;-76
2022/06/10 12:45:39;;;;;;;6.03;3.58;;;21.50;69.50;;;;;;5174787;28;20054;-74
2022/06/10 12:48:22;;;;;;;4.65;3.50;;;21.40;71.30;;;;;;5176654;28;20050;-73
2022/06/10 12:51:11;;;;;;;7.05;3.22;;;21.30;70.00;;;;;;5157107;28;20042;-75
2022/06/10 12:54:11;;;;;;;7.20;3.90;;;21.30;68.90;;;;;;5176241;28;20045;-75
2022/06/10 12:56:44;;;;;;;6.60;2.92;;;21.20;70.70;;;;;;5157053;28;20033;-75
2022/06/10 12:59:25;;;;;;;4.93;3.58;;;21.10;70.20;;;;;;5172385;28;20057;-75
2022/06/10 13:01:58;;;;;;;5.25;3.65;;;21.10;68.90;;;;;;5177410;28;20049;-75
2022/06/10 13:04:33;;;;;;;7.45;3.45;;;21.00;70.80;;;;;;5177054;28;20069;-75
2022/06/10 13:07:26;;;;;;;5.60;3.47;;;20.90;71.70;;;;;;5176973;28;20045;-75
2022/06/10 13:10:33;;;;;;;4.63;2.97;;;20.80;70.70;;;;;;5180196;28;20052;-77
2022/06/10 13:13:13;;;;;;;5.63;3.50;;;20.80;69.90;;;;;;5180228;28;20053;-76
2022/06/10 13:15:53;;;;;;;8.20;4.00;;;20.60;70.80;;;;;;5178248;28;20038;-75
2022/06/10 13:18:32;;;;;;;7.45;3.80;;;20.60;72.20;;;;;;5165129;28;20051;-75
2022/06/10 13:21:14;;;;;;;4.38;3.30;;;20.50;73.70;;;;;;5178076;28;20548;-76
2022/06/10 13:24:08;;;;;;;4.88;3.42;;;20.40;74.40;;;;;;5175584;28;20050;-75
2022/06/10 13:26:41;;;;;;;;;;;20.20;76.30;;;;;;5163102;28;20433;-76
2022/06/10 13:29:17;;;;;;;5.55;3.58;;;20.10;77.40;;;;;;5179015;28;19925;-75
2022/06/10 13:31:58;;;;;;;6.45;3.28;;;20.00;77.60;;;;;;5179980;28;20050;-75
2022/06/10 13:34:38;;;;;;;5.70;3.67;;;19.90;77.40;;;;;;5178622;28;20057;-75
2022/06/10 13:37:18;;;;;;;9.15;3.63;;;19.80;77.50;;;;;;5159199;28;20042;-75
2022/06/10 13:39:53;;;;;;;8.88;3.90;;;19.90;77.60;;;;;;5178639;28;20034;-76
2022/06/10 13:42:34;;;;;;;6.78;3.92;;;19.80;77.20;;;;;;5159128;28;20041;-75
2022/06/10 13:45:16;;;;;;;6.40;3.83;;;19.90;78.20;;;;;;5159977;28;20061;-77
2022/06/10 13:47:55;;;;;;;4.70;3.20;;;19.90;77.80;;;;;;5176342;28;20042;-75
2022/06/10 13:53:28;;;;;;;6.78;4.13;;;19.90;75.00;;;;;;5177476;28;20057;-76
2022/06/10 13:56:04;;;;;;;9.20;4.00;;;19.80;74.60;;;;;;5159993;28;20037;-75
2022/06/10 13:58:37;;;;;;;5.88;3.88;;;19.70;75.40;;;;;;5175213;28;20069;-76
2022/06/10 14:01:32;;;;;;;8.02;3.92;;;19.70;76.00;;;;;;5159429;28;20046;-75
2022/06/10 14:04:16;;;;;;;6.88;3.80;;;19.80;75.00;;;;;;5178146;28;20046;-75
2022/06/10 14:06:52;;;;;;;6.97;4.05;;;19.70;75.40;;;;;;5175750;28;20045;-75
2022/06/10 14:09:29;;;;;;;10.13;4.57;;;19.70;76.00;;;;;;5175401;28;20057;-74
2022/06/10 14:12:19;;;;;;;8.27;4.00;;;19.80;76.90;;;;;;5177009;28;20062;-76
2022/06/10 14:14:52;;;;;;;7.50;4.00;;;19.80;77.00;;;;;;5176262;28;20425;-76
2022/06/10 14:17:25;;;;;;;6.57;4.30;;;19.80;76.60;;;;;;5153920;28;20050;-76
2022/06/10 14:20:01;;;;;;;8.25;4.38;;;19.80;77.20;;;;;;5176282;28;20057;-75
2022/06/10 14:22:34;;;;;;;7.55;4.40;;;19.90;75.80;;;;;;5174431;28;20049;-77